Time;durP1;ratioP1;P1;durP2;ratioP2;P2;SDS_P1;SDS_P2;PMS_P1;PMS_P2;Temp;Humidity;BMP_temperature;BMP_pressure;BME280_temperature;BME280_humidity;BME280_pressure;Samples;Min_cycle;Max_cycle;Signal;HPM_P1;HPM_P2
2021/07/17 00:02:12;;;;;;;10.55;3.67;;;;;;;;;;5029957;28;20100;-68
2021/07/17 00:04:38;;;;;;;5.65;2.92;;;;;;;;;;5028533;28;20021;-68
2021/07/17 00:07:05;;;;;;;6.82;3.30;;;;;;;;;;5029554;28;20034;-68
2021/07/17 00:09:31;;;;;;;6.35;2.80;;;;;;;;;;5030040;28;20037;-68
2021/07/17 00:11:57;;;;;;;5.68;3.20;;;;;;;;;;5029786;28;20021;-68
2021/07/17 00:15:25;;;;;;;7.22;3.15;;;;;;;;;;5110448;27;20513;-68
2021/07/17 00:17:51;;;;;;;6.22;3.38;;;;;;;;;;5110386;28;20031;-70
2021/07/17 00:20:18;;;;;;;6.60;3.42;;;;;;;;;;5110120;28;20016;-70
2021/07/17 00:22:45;;;;;;;5.20;3.35;;;;;;;;;;5109135;28;20060;-70
2021/07/17 00:25:13;;;;;;;7.15;3.10;;;;;;;;;;5110263;28;20365;-69
2021/07/17 00:27:39;;;;;;;5.78;3.22;;;;;;;;;;5110030;28;20024;-69
2021/07/17 00:30:05;;;;;;;5.55;3.17;;;;;;;;;;5110254;28;20433;-67
2021/07/17 00:32:32;;;;;;;5.80;3.30;;;;;;;;;;5110101;28;20016;-67
2021/07/17 00:34:58;;;;;;;4.50;2.75;;;;;;;;;;5109589;28;20118;-67
2021/07/17 00:37:24;;;;;;;6.07;2.95;;;;;;;;;;5108778;28;20016;-67
2021/07/17 00:39:50;;;;;;;5.82;3.30;;;;;;;;;;5109919;28;20098;-68
2021/07/17 00:42:16;;;;;;;5.13;2.80;;;;;;;;;;5108310;28;20411;-68
2021/07/17 00:44:42;;;;;;;6.47;3.60;;;;;;;;;;5108668;28;20453;-68
2021/07/17 00:47:09;;;;;;;7.13;3.20;;;;;;;;;;5110008;28;20023;-68
2021/07/17 00:49:36;;;;;;;4.75;2.92;;;;;;;;;;5109675;28;20077;-68
2021/07/17 00:52:02;;;;;;;6.18;3.35;;;;;;;;;;5109773;28;20016;-68
2021/07/17 00:54:29;;;;;;;5.82;3.50;;;;;;;;;;5108466;28;20027;-68
2021/07/17 00:58:58;;;;;;;6.90;3.67;;;;;;;;;;5110494;27;20393;-67
2021/07/17 01:01:25;;;;;;;6.55;3.35;;;;;;;;;;5109211;28;20496;-68
2021/07/17 01:03:51;;;;;;;4.55;2.55;;;;;;;;;;5110092;28;20529;-68
2021/07/17 01:06:17;;;;;;;5.20;3.05;;;;;;;;;;5110561;28;20024;-68
2021/07/17 01:08:43;;;;;;;5.25;2.75;;;;;;;;;;5109950;28;20101;-68
2021/07/17 01:13:17;;;;;;;4.18;2.70;;;;;;;;;;5069764;28;20384;-67
2021/07/17 01:15:43;;;;;;;5.20;2.90;;;;;;;;;;5069445;28;20044;-67
2021/07/17 01:18:10;;;;;;;5.95;3.17;;;;;;;;;;5069798;28;20021;-67
2021/07/17 01:22:06;;;;;;;5.78;3.30;;;;;;;;;;5110514;27;20438;-68
2021/07/17 01:24:32;;;;;;;5.53;3.00;;;;;;;;;;5109030;28;20042;-68
2021/07/17 01:28:47;;;;;;;5.65;2.90;;;;;;;;;;5110514;27;20420;-67
2021/07/17 01:31:14;;;;;;;7.22;3.20;;;;;;;;;;5109925;28;20484;-69
2021/07/17 01:33:41;;;;;;;4.45;2.58;;;;;;;;;;5110164;28;20461;-69
2021/07/17 01:36:07;;;;;;;8.18;3.38;;;;;;;;;;5110211;28;20032;-67
2021/07/17 01:38:33;;;;;;;6.80;2.75;;;;;;;;;;5125632;28;20027;-67
2021/07/17 01:41:00;;;;;;;5.95;3.50;;;;;;;;;;5110246;28;20020;-67
2021/07/17 01:43:26;;;;;;;9.27;3.90;;;;;;;;;;5125988;28;20042;-67
2021/07/17 01:45:58;;;;;;;6.57;3.75;;;;;;;;;;5109978;28;20044;-69
2021/07/17 01:48:24;;;;;;;6.07;3.38;;;;;;;;;;5110234;28;20032;-67
2021/07/17 01:50:50;;;;;;;9.43;2.97;;;;;;;;;;5110091;28;20099;-68
2021/07/17 01:54:49;;;;;;;6.57;2.90;;;;;;;;;;5110387;27;20512;-68
2021/07/17 01:59:01;;;;;;;5.20;3.10;;;;;;;;;;5069597;28;20509;-67
2021/07/17 02:01:28;;;;;;;7.97;3.28;;;;;;;;;;5069942;28;20033;-67
2021/07/17 02:03:54;;;;;;;5.00;2.92;;;;;;;;;;5069838;28;20029;-67
2021/07/17 02:06:27;;;;;;;5.85;3.17;;;;;;;;;;5068322;28;20545;-69
2021/07/17 02:08:54;;;;;;;5.28;2.97;;;;;;;;;;5069742;28;20028;-69
2021/07/17 02:11:20;;;;;;;5.68;2.75;;;;;;;;;;5069779;28;20025;-69
2021/07/17 02:13:48;;;;;;;5.28;2.72;;;;;;;;;;5069321;28;20048;-69
2021/07/17 02:18:12;;;;;;;7.22;3.25;;;;;;;;;;5110428;27;20416;-67
2021/07/17 02:20:39;;;;;;;5.15;2.75;;;;;;;;;;5125872;28;20024;-67
2021/07/17 02:23:05;;;;;;;5.35;3.15;;;;;;;;;;5126264;28;20033;-67
2021/07/17 02:25:32;;;;;;;5.22;3.00;;;;;;;;;;5110566;28;20099;-69
2021/07/17 02:27:58;;;;;;;9.77;3.20;;;;;;;;;;5125779;28;20484;-67
2021/07/17 02:30:24;;;;;;;5.53;2.90;;;;;;;;;;5110267;28;20028;-67
2021/07/17 02:32:50;;;;;;;6.03;3.13;;;;;;;;;;5126074;28;20012;-69
2021/07/17 02:35:17;;;;;;;4.25;2.70;;;;;;;;;;5109660;28;20107;-67
2021/07/17 02:37:43;;;;;;;5.50;3.08;;;;;;;;;;5110013;28;20039;-69
2021/07/17 02:40:17;;;;;;;7.75;3.42;;;;;;;;;;5110174;27;20734;-67
2021/07/17 02:42:43;;;;;;;5.43;3.08;;;;;;;;;;5110650;28;20024;-67
2021/07/17 02:45:12;;;;;;;5.18;3.20;;;;;;;;;;5110746;28;20020;-67
2021/07/17 02:49:19;;;;;;;5.18;3.45;;;;;;;;;;5110039;27;20388;-68
2021/07/17 02:51:46;;;;;;;4.45;2.40;;;;;;;;;;5110502;28;20024;-68
2021/07/17 02:54:13;;;;;;;5.63;3.25;;;;;;;;;;5109988;28;20124;-68
2021/07/17 02:56:39;;;;;;;7.70;3.35;;;;;;;;;;5110412;28;20024;-68
2021/07/17 02:59:05;;;;;;;6.18;3.50;;;;;;;;;;5110333;28;20024;-68
2021/07/17 03:02:36;;;;;;;5.15;3.15;;;;;;;;;;5110373;27;20416;-69
2021/07/17 03:05:03;;;;;;;5.90;2.75;;;;;;;;;;5110590;28;20498;-68
2021/07/17 03:07:29;;;;;;;8.15;3.10;;;;;;;;;;5126495;28;20020;-68
2021/07/17 03:10:51;;;;;;;6.13;3.30;;;;;;;;;;5110502;27;20742;-67
2021/07/17 03:14:24;;;;;;;6.45;3.60;;;;;;;;;;5110459;27;20321;-67
2021/07/17 03:16:50;;;;;;;6.15;3.25;;;;;;;;;;5110130;28;20047;-69
2021/07/17 03:19:16;;;;;;;5.65;3.20;;;;;;;;;;5110374;28;20020;-67
2021/07/17 03:21:42;;;;;;;8.38;3.67;;;;;;;;;;5110593;28;20028;-67
2021/07/17 03:24:08;;;;;;;5.13;2.97;;;;;;;;;;5110053;28;20024;-69
2021/07/17 03:26:35;;;;;;;6.97;3.20;;;;;;;;;;5110250;28;20609;-67
2021/07/17 03:29:01;;;;;;;6.45;3.55;;;;;;;;;;5110240;28;20055;-67
2021/07/17 03:31:28;;;;;;;6.80;3.28;;;;;;;;;;5109723;28;20487;-67
2021/07/17 03:33:54;;;;;;;7.50;3.40;;;;;;;;;;5110125;28;20065;-67
2021/07/17 03:36:20;;;;;;;5.93;3.60;;;;;;;;;;5109809;28;20019;-67
2021/07/17 03:38:47;;;;;;;5.45;3.45;;;;;;;;;;5108634;28;20024;-67
2021/07/17 03:41:13;;;;;;;7.40;3.42;;;;;;;;;;5110235;28;20050;-67
2021/07/17 03:43:39;;;;;;;5.78;3.33;;;;;;;;;;5109727;28;20063;-67
2021/07/17 03:46:05;;;;;;;5.30;3.10;;;;;;;;;;5108672;28;20024;-67
2021/07/17 03:48:31;;;;;;;7.82;3.70;;;;;;;;;;5108581;28;20050;-67
2021/07/17 03:50:58;;;;;;;7.03;3.40;;;;;;;;;;5108109;28;20047;-68
2021/07/17 03:53:24;;;;;;;6.85;3.10;;;;;;;;;;5109715;28;20024;-69
2021/07/17 03:55:50;;;;;;;4.50;2.65;;;;;;;;;;5109682;28;20099;-68
2021/07/17 03:59:37;;;;;;;6.65;3.40;;;;;;;;;;5110185;27;20377;-69
2021/07/17 04:05:26;;;;;;;6.07;2.88;;;;;;;;;;5088907;27;1851986;-68
2021/07/17 04:07:53;;;;;;;4.88;3.17;;;;;;;;;;5131034;28;20368;-68
2021/07/17 04:10:19;;;;;;;7.47;3.60;;;;;;;;;;5130862;28;20020;-68
2021/07/17 04:12:45;;;;;;;6.63;3.08;;;;;;;;;;5129215;28;20152;-68
2021/07/17 04:15:12;;;;;;;4.15;2.72;;;;;;;;;;5130770;28;20023;-68
2021/07/17 04:17:38;;;;;;;5.70;3.38;;;;;;;;;;5130785;28;20016;-68
2021/07/17 04:20:08;;;;;;;6.45;3.50;;;;;;;;;;5129009;28;20031;-69
2021/07/17 04:22:35;;;;;;;5.93;3.00;;;;;;;;;;5130877;28;20043;-68
2021/07/17 04:25:01;;;;;;;9.07;4.90;;;;;;;;;;5130660;28;20387;-68
2021/07/17 04:27:27;;;;;;;8.02;4.00;;;;;;;;;;5130051;28;20033;-67
2021/07/17 04:29:54;;;;;;;5.35;3.22;;;;;;;;;;5130573;28;20024;-67
2021/07/17 04:32:20;;;;;;;5.97;3.15;;;;;;;;;;5130514;28;20391;-67
2021/07/17 04:34:46;;;;;;;6.28;3.15;;;;;;;;;;5130357;28;20024;-68
2021/07/17 04:37:16;;;;;;;5.78;3.58;;;;;;;;;;5130366;28;20020;-68
2021/07/17 04:39:42;;;;;;;10.77;6.07;;;;;;;;;;5128631;28;20023;-68
2021/07/17 04:44:08;;;;;;;6.88;3.65;;;;;;;;;;5110579;27;20532;-67
2021/07/17 04:46:34;;;;;;;7.55;3.75;;;;;;;;;;5109163;28;20030;-67
2021/07/17 04:49:00;;;;;;;4.97;3.08;;;;;;;;;;5109941;28;20019;-68
2021/07/17 04:51:26;;;;;;;6.28;3.92;;;;;;;;;;5108985;28;20052;-68
2021/07/17 04:53:53;;;;;;;7.63;3.92;;;;;;;;;;5109941;28;20460;-68
2021/07/17 04:56:19;;;;;;;5.70;3.15;;;;;;;;;;5110322;28;20035;-68
2021/07/17 04:58:45;;;;;;;10.80;4.40;;;;;;;;;;5110232;28;20388;-68
2021/07/17 05:01:12;;;;;;;7.25;4.00;;;;;;;;;;5109888;28;20028;-68
2021/07/17 05:03:38;;;;;;;7.38;3.70;;;;;;;;;;5110117;28;20036;-68
2021/07/17 05:06:05;;;;;;;7.57;3.10;;;;;;;;;;5110106;28;20468;-68
2021/07/17 05:08:31;;;;;;;6.10;3.20;;;;;;;;;;5109679;28;20051;-68
2021/07/17 05:10:58;;;;;;;5.82;3.35;;;;;;;;;;5109914;28;20507;-68
2021/07/17 05:13:24;;;;;;;7.90;2.92;;;;;;;;;;5108596;28;20035;-68
2021/07/17 05:15:50;;;;;;;6.57;3.20;;;;;;;;;;5109602;28;20465;-68
2021/07/17 05:18:16;;;;;;;5.63;3.63;;;;;;;;;;5109784;28;20032;-68
2021/07/17 05:20:43;;;;;;;6.47;3.50;;;;;;;;;;5108592;28;20016;-68
2021/07/17 05:23:10;;;;;;;6.40;3.78;;;;;;;;;;5109513;28;20054;-68
2021/07/17 05:25:36;;;;;;;8.15;3.78;;;;;;;;;;5108441;28;20023;-68
2021/07/17 05:28:03;;;;;;;5.88;3.40;;;;;;;;;;5109747;28;20027;-68
2021/07/17 05:32:20;;;;;;;6.45;3.83;;;;;;;;;;5110477;27;20384;-67
2021/07/17 05:34:47;;;;;;;4.72;3.28;;;;;;;;;;5109223;28;20027;-68
2021/07/17 05:37:13;;;;;;;6.47;3.67;;;;;;;;;;5110022;28;20028;-69
2021/07/17 05:39:39;;;;;;;5.55;3.47;;;;;;;;;;5110369;28;20488;-70
2021/07/17 05:42:06;;;;;;;6.68;3.65;;;;;;;;;;5110466;28;20431;-69
2021/07/17 05:44:32;;;;;;;7.15;4.00;;;;;;;;;;5108813;28;20024;-70
2021/07/17 05:46:59;;;;;;;5.57;3.40;;;;;;;;;;5110248;28;20088;-70
2021/07/17 05:49:25;;;;;;;12.88;4.13;;;;;;;;;;5110197;28;20032;-69
2021/07/17 05:51:52;;;;;;;10.38;3.67;;;;;;;;;;5110066;28;20339;-69
2021/07/17 05:54:18;;;;;;;7.32;3.40;;;;;;;;;;5108746;28;20031;-69
2021/07/17 05:56:44;;;;;;;6.07;3.42;;;;;;;;;;5108755;28;20027;-69
2021/07/17 05:59:10;;;;;;;7.82;3.63;;;;;;;;;;5108303;28;20388;-69
2021/07/17 06:01:37;;;;;;;7.38;3.60;;;;;;;;;;5110000;28;20047;-69
2021/07/17 06:04:04;;;;;;;8.20;3.60;;;;;;;;;;5110109;28;20016;-70
2021/07/17 06:06:30;;;;;;;5.30;3.05;;;;;;;;;;5109498;28;20093;-68
2021/07/17 06:08:56;;;;;;;6.38;2.83;;;;;;;;;;5109697;28;20020;-69
2021/07/17 06:11:22;;;;;;;6.93;3.40;;;;;;;;;;5109220;28;20036;-68
2021/07/17 06:13:49;;;;;;;8.77;3.63;;;;;;;;;;5109722;28;20047;-69
2021/07/17 06:16:15;;;;;;;5.57;3.03;;;;;;;;;;5109763;28;20024;-69
2021/07/17 06:18:41;;;;;;;6.30;3.45;;;;;;;;;;5109233;28;20034;-69
2021/07/17 06:21:07;;;;;;;6.60;3.22;;;;;;;;;;5109621;28;20717;-69
2021/07/17 06:23:33;;;;;;;5.88;3.33;;;;;;;;;;5109855;28;20035;-70
2021/07/17 06:26:57;;;;;;;5.95;3.33;;;;;;;;;;5110234;27;20388;-68
2021/07/17 06:29:23;;;;;;;6.95;4.05;;;;;;;;;;5110392;28;20024;-68
2021/07/17 06:31:49;;;;;;;6.20;3.50;;;;;;;;;;5110382;28;20035;-68
2021/07/17 06:34:16;;;;;;;6.60;3.65;;;;;;;;;;5110048;28;20016;-69
2021/07/17 06:36:42;;;;;;;5.20;3.45;;;;;;;;;;5110271;28;20509;-68
2021/07/17 06:39:08;;;;;;;8.38;3.63;;;;;;;;;;5110210;28;20051;-69
2021/07/17 06:41:34;;;;;;;8.95;4.82;;;;;;;;;;5109863;28;20103;-69
2021/07/17 06:44:01;;;;;;;10.93;3.90;;;;;;;;;;5109100;28;20361;-69
2021/07/17 06:46:27;;;;;;;6.18;4.03;;;;;;;;;;5109979;28;20035;-69
2021/07/17 06:48:53;;;;;;;8.38;4.18;;;;;;;;;;5110441;28;20031;-69
2021/07/17 06:51:19;;;;;;;7.38;3.20;;;;;;;;;;5110052;28;20027;-69
2021/07/17 06:53:45;;;;;;;6.38;3.63;;;;;;;;;;5109618;28;20020;-69
2021/07/17 06:56:13;;;;;;;7.20;3.60;;;;;;;;;;5109886;28;20027;-69
2021/07/17 06:58:39;;;;;;;6.30;3.30;;;;;;;;;;5109907;28;20012;-69
2021/07/17 07:01:05;;;;;;;7.82;3.30;;;;;;;;;;5109743;28;20103;-69
2021/07/17 07:03:31;;;;;;;7.18;3.80;;;;;;;;;;5110006;28;20028;-69
2021/07/17 07:05:58;;;;;;;8.35;3.72;;;;;;;;;;5109943;28;20422;-69
2021/07/17 07:08:25;;;;;;;6.30;3.70;;;;;;;;;;5107941;28;20023;-69
2021/07/17 07:10:51;;;;;;;5.40;3.42;;;;;;;;;;5108377;28;20047;-69
2021/07/17 07:13:18;;;;;;;5.45;3.15;;;;;;;;;;5109600;28;20499;-69
2021/07/17 07:15:44;;;;;;;4.90;2.97;;;;;;;;;;5109163;28;20020;-69
2021/07/17 07:18:12;;;;;;;7.38;3.35;;;;;;;;;;5108232;28;20034;-69
2021/07/17 07:20:38;;;;;;;6.20;3.50;;;;;;;;;;5108225;28;20016;-69
2021/07/17 07:23:04;;;;;;;13.43;4.25;;;;;;;;;;5108060;28;20027;-69
2021/07/17 07:25:31;;;;;;;6.00;3.60;;;;;;;;;;5108016;28;20467;-69
2021/07/17 07:27:57;;;;;;;6.85;3.60;;;;;;;;;;5109473;28;20032;-69
2021/07/17 07:30:24;;;;;;;9.90;3.38;;;;;;;;;;5108858;28;20058;-69
2021/07/17 07:32:50;;;;;;;10.45;4.10;;;;;;;;;;5107990;28;20437;-69
2021/07/17 07:35:17;;;;;;;8.50;4.22;;;;;;;;;;5109165;28;20024;-69
2021/07/17 07:37:45;;;;;;;6.78;3.20;;;;;;;;;;5098357;28;20425;-69
2021/07/17 07:40:11;;;;;;;6.78;3.13;;;;;;;;;;5095481;28;20035;-69
2021/07/17 07:42:37;;;;;;;6.30;3.38;;;;;;;;;;5095515;28;20024;-67
2021/07/17 07:45:04;;;;;;;6.40;3.40;;;;;;;;;;5093939;28;20049;-69
2021/07/17 07:47:30;;;;;;;7.47;4.22;;;;;;;;;;5095399;28;20016;-69
2021/07/17 07:49:57;;;;;;;6.88;4.00;;;;;;;;;;5094931;28;20117;-69
2021/07/17 07:52:23;;;;;;;6.93;3.40;;;;;;;;;;5093946;28;20388;-69
2021/07/17 07:54:50;;;;;;;7.15;3.70;;;;;;;;;;5095189;28;20062;-69
2021/07/17 07:57:16;;;;;;;6.25;3.30;;;;;;;;;;5094844;28;20030;-69
2021/07/17 07:59:42;;;;;;;6.05;3.72;;;;;;;;;;5095187;28;20024;-69
2021/07/17 08:02:09;;;;;;;5.72;3.45;;;;;;;;;;5095094;28;20024;-69
2021/07/17 08:04:35;;;;;;;5.35;3.40;;;;;;;;;;5094587;28;20020;-69
2021/07/17 08:07:02;;;;;;;7.93;3.67;;;;;;;;;;5095013;28;20484;-69
2021/07/17 08:09:28;;;;;;;5.38;3.10;;;;;;;;;;5093688;28;20039;-69
2021/07/17 08:11:54;;;;;;;6.15;3.47;;;;;;;;;;5094437;28;20025;-69
2021/07/17 08:14:21;;;;;;;5.35;3.08;;;;;;;;;;5094823;28;20037;-69
2021/07/17 08:16:47;;;;;;;10.10;3.92;;;;;;;;;;5093587;28;20028;-69
2021/07/17 08:19:15;;;;;;;7.05;3.28;;;;;;;;;;5094408;28;20099;-69
2021/07/17 08:21:41;;;;;;;6.75;3.92;;;;;;;;;;5094940;28;20379;-69
2021/07/17 08:24:08;;;;;;;8.43;3.60;;;;;;;;;;5094798;28;20020;-69
2021/07/17 08:26:34;;;;;;;5.40;3.20;;;;;;;;;;5092867;28;20040;-69
2021/07/17 08:29:00;;;;;;;6.25;3.60;;;;;;;;;;5094632;28;20035;-70
2021/07/17 08:31:26;;;;;;;7.38;3.58;;;;;;;;;;5094448;28;20056;-69
2021/07/17 08:33:53;;;;;;;7.20;2.85;;;;;;;;;;5094054;28;20048;-68
2021/07/17 08:36:19;;;;;;;9.13;3.95;;;;;;;;;;5094455;28;20107;-68
2021/07/17 08:38:45;;;;;;;5.97;3.38;;;;;;;;;;5094413;28;20469;-70
2021/07/17 08:41:11;;;;;;;8.65;3.65;;;;;;;;;;5092763;28;20031;-68
2021/07/17 08:43:39;;;;;;;7.95;4.13;;;;;;;;;;5093240;28;20031;-68
2021/07/17 08:46:05;;;;;;;8.35;4.15;;;;;;;;;;5094035;28;20028;-69
2021/07/17 08:48:32;;;;;;;10.77;3.50;;;;;;;;;;5093208;28;20497;-68
2021/07/17 08:50:59;;;;;;;12.43;4.65;;;;;;;;;;5094416;28;20096;-69
2021/07/17 08:53:26;;;;;;;6.70;3.20;;;;;;;;;;5093685;28;20020;-68
2021/07/17 08:55:54;;;;;;;5.78;2.90;;;;;;;;;;5093993;28;20073;-69
2021/07/17 08:58:20;;;;;;;6.20;3.20;;;;;;;;;;5093956;28;20475;-69
2021/07/17 09:00:46;;;;;;;6.75;3.80;;;;;;;;;;5093669;28;20055;-69
2021/07/17 09:03:16;;;;;;;8.23;3.38;;;;;;;;;;5094130;28;20481;-69
2021/07/17 09:05:42;;;;;;;5.65;3.33;;;;;;;;;;5092423;28;20123;-69
2021/07/17 09:08:13;;;;;;;6.63;3.70;;;;;;;;;;5093449;28;20412;-69
2021/07/17 09:10:40;;;;;;;7.20;3.60;;;;;;;;;;5093778;28;20074;-69
2021/07/17 09:13:14;;;;;;;6.53;3.60;;;;;;;;;;5093961;28;20020;-69
2021/07/17 09:15:42;;;;;;;7.22;3.28;;;;;;;;;;5093315;28;20051;-68
2021/07/17 09:18:08;;;;;;;5.15;3.28;;;;;;;;;;5093608;28;20024;-69
2021/07/17 09:20:35;;;;;;;9.18;3.92;;;;;;;;;;5092307;28;20035;-68
2021/07/17 09:23:03;;;;;;;6.05;3.65;;;;;;;;;;5093365;28;20024;-68
2021/07/17 09:25:42;;;;;;;8.55;3.80;;;;;;;;;;5093216;28;20058;-70
2021/07/17 09:28:14;;;;;;;10.55;4.15;;;;;;;;;;5093479;28;20024;-68
2021/07/17 09:30:41;;;;;;;5.05;2.95;;;;;;;;;;5092119;28;20500;-68
2021/07/17 09:33:07;;;;;;;6.47;3.60;;;;;;;;;;5093440;28;20028;-69
2021/07/17 09:35:34;;;;;;;6.22;3.63;;;;;;;;;;5091545;28;20647;-69
2021/07/17 09:38:02;;;;;;;6.28;3.92;;;;;;;;;;5091935;28;20024;-68
2021/07/17 09:40:41;;;;;;;5.80;3.20;;;;;;;;;;5093279;28;20100;-69
2021/07/17 09:43:07;;;;;;;10.38;3.92;;;;;;;;;;5093345;28;20032;-69
2021/07/17 09:45:37;;;;;;;5.80;3.63;;;;;;;;;;5093108;28;20024;-68
2021/07/17 09:48:22;;;;;;;4.93;3.03;;;;;;;;;;5091892;28;20047;-69
2021/07/17 09:50:49;;;;;;;6.07;3.38;;;;;;;;;;5091286;28;20027;-69
2021/07/17 09:53:34;;;;;;;6.43;3.20;;;;;;;;;;5093105;28;20024;-69
2021/07/17 09:56:11;;;;;;;7.65;3.63;;;;;;;;;;5091714;28;20025;-69
2021/07/17 09:58:38;;;;;;;6.53;3.47;;;;;;;;;;5092604;28;20024;-69
2021/07/17 10:01:43;;;;;;;7.47;3.38;;;;;;;;;;5092727;28;20016;-69
2021/07/17 10:04:14;;;;;;;9.38;3.92;;;;;;;;;;5030137;28;20093;-69
2021/07/17 10:07:06;;;;;;;6.43;3.00;;;;;;;;;;5030396;28;20037;-69
2021/07/17 10:09:33;;;;;;;7.53;3.25;;;;;;;;;;5071283;28;20036;-68
2021/07/17 10:12:01;;;;;;;5.20;3.17;;;;;;;;;;5092402;28;20035;-70
2021/07/17 10:14:29;;;;;;;6.97;3.33;;;;;;;;;;5092715;28;20024;-69
2021/07/17 10:16:58;;;;;;;7.35;3.10;;;;;;;;;;5091308;28;20036;-69
2021/07/17 10:19:25;;;;;;;6.55;3.45;;;;;;;;;;5092372;28;20024;-68
2021/07/17 10:21:51;;;;;;;13.68;4.55;;;;;;;;;;5091584;28;20388;-69
2021/07/17 10:24:18;;;;;;;7.65;3.30;;;;;;;;;;5092857;28;20028;-68
2021/07/17 10:26:44;;;;;;;6.25;3.00;;;;;;;;;;5091992;28;20408;-68
2021/07/17 10:29:12;;;;;;;7.00;3.70;;;;;;;;;;5092624;28;20441;-68
2021/07/17 10:31:39;;;;;;;4.88;2.60;;;;;;;;;;5090987;28;20035;-69
2021/07/17 10:34:05;;;;;;;6.63;3.03;;;;;;;;;;5092641;28;20038;-69
2021/07/17 10:36:32;;;;;;;6.43;3.28;;;;;;;;;;5092559;28;20392;-69
2021/07/17 10:39:00;;;;;;;6.85;4.00;;;;;;;;;;5092122;28;20073;-69
2021/07/17 10:41:27;;;;;;;6.78;3.20;;;;;;;;;;5092565;28;20020;-68
2021/07/17 10:43:54;;;;;;;4.93;3.28;;;;;;;;;;5091412;28;20028;-68
2021/07/17 10:46:28;;;;;;;7.97;3.33;;;;;;;;;;5090694;28;20039;-69
2021/07/17 10:48:54;;;;;;;6.95;2.90;;;;;;;;;;5092850;28;20021;-70
2021/07/17 10:51:25;;;;;;;6.55;3.00;;;;;;;;;;5092448;28;20020;-68
2021/07/17 10:53:54;;;;;;;4.75;2.40;;;;;;;;;;5092202;28;20012;-69
2021/07/17 10:56:29;;;;;;;6.05;3.10;;;;;;;;;;5092379;28;20024;-69
2021/07/17 10:58:59;;;;;;;6.43;3.15;;;;;;;;;;5092407;28;20031;-69
2021/07/17 11:01:27;;;;;;;5.88;2.67;;;;;;;;;;5091966;28;20031;-70
2021/07/17 11:03:54;;;;;;;6.65;3.42;;;;;;;;;;5092595;28;20111;-70
2021/07/17 11:06:24;;;;;;;4.07;2.75;;;;;;;;;;5092270;28;20039;-67
2021/07/17 11:08:51;;;;;;;5.85;3.00;;;;;;;;;;5091830;28;20016;-70
2021/07/17 11:11:36;;;;;;;5.82;2.95;;;;;;;;;;5092507;28;20460;-70
2021/07/17 11:14:06;;;;;;;4.93;3.10;;;;;;;;;;5094578;28;20012;-70
2021/07/17 11:16:44;;;;;;;6.90;2.83;;;;;;;;;;5095999;28;20028;-69
2021/07/17 11:19:22;;;;;;;7.10;3.03;;;;;;;;;;5096016;28;20028;-69
2021/07/17 11:21:49;;;;;;;5.30;3.22;;;;;;;;;;5095652;28;20042;-70
2021/07/17 11:24:15;;;;;;;5.40;2.95;;;;;;;;;;5094835;28;20507;-69
2021/07/17 11:26:42;;;;;;;6.90;3.20;;;;;;;;;;5095675;28;20734;-68
2021/07/17 11:29:10;;;;;;;5.05;3.13;;;;;;;;;;5095355;28;20464;-68
2021/07/17 11:31:39;;;;;;;8.10;3.50;;;;;;;;;;5095695;28;20020;-69
2021/07/17 11:34:14;;;;;;;5.53;2.95;;;;;;;;;;5094432;28;20341;-70
2021/07/17 11:36:42;;;;;;;6.70;3.08;;;;;;;;;;5095304;28;20023;-69
2021/07/17 11:39:09;;;;;;;5.72;2.90;;;;;;;;;;5095484;28;20020;-69
2021/07/17 11:41:36;;;;;;;7.47;3.08;;;;;;;;;;5095604;28;20028;-69
2021/07/17 11:44:02;;;;;;;4.15;2.78;;;;;;;;;;5095172;28;20031;-70
2021/07/17 11:46:28;;;;;;;4.55;3.10;;;;;;;;;;5095555;28;20055;-69
2021/07/17 11:49:03;;;;;;;6.13;3.30;;;;;;;;;;5095007;28;20024;-72
2021/07/17 11:51:29;;;;;;;7.45;3.22;;;;;;;;;;5095418;28;20028;-69
2021/07/17 11:54:00;;;;;;;8.73;3.28;;;;;;;;;;5095291;28;20073;-70
2021/07/17 11:56:26;;;;;;;5.38;3.22;;;;;;;;;;5094904;28;20031;-69
2021/07/17 11:59:11;;;;;;;7.20;2.75;;;;;;;;;;5095304;28;20487;-69
2021/07/17 12:01:37;;;;;;;5.32;3.15;;;;;;;;;;5095215;28;20024;-69
2021/07/17 12:04:03;;;;;;;5.57;2.95;;;;;;;;;;5095028;28;20020;-69
2021/07/17 12:06:32;;;;;;;6.60;3.00;;;;;;;;;;5093890;28;20034;-69
2021/07/17 12:09:08;;;;;;;5.28;2.92;;;;;;;;;;5095153;28;20423;-69
2021/07/17 12:11:34;;;;;;;6.93;3.20;;;;;;;;;;5094685;28;20490;-70
2021/07/17 12:14:20;;;;;;;7.35;3.05;;;;;;;;;;5095059;28;20085;-70
2021/07/17 12:16:46;;;;;;;6.32;3.35;;;;;;;;;;5094907;28;20023;-69
2021/07/17 12:19:17;;;;;;;6.68;3.10;;;;;;;;;;5094419;28;20104;-69
2021/07/17 12:21:44;;;;;;;4.43;2.92;;;;;;;;;;5094826;28;20081;-69
2021/07/17 12:24:10;;;;;;;10.27;3.00;;;;;;;;;;5094455;28;20431;-69
2021/07/17 12:26:36;;;;;;;5.00;3.10;;;;;;;;;;5093298;28;20054;-69
2021/07/17 12:29:02;;;;;;;5.78;2.92;;;;;;;;;;5094647;28;20062;-67
2021/07/17 12:31:28;;;;;;;7.93;3.25;;;;;;;;;;5094089;28;20020;-69
2021/07/17 12:33:54;;;;;;;4.95;3.20;;;;;;;;;;5093256;28;20038;-69
2021/07/17 12:36:22;;;;;;;9.98;3.10;;;;;;;;;;5094537;28;20031;-70
2021/07/17 12:38:51;;;;;;;5.93;3.22;;;;;;;;;;5094089;28;20039;-69
2021/07/17 12:41:21;;;;;;;7.70;3.35;;;;;;;;;;5094358;28;20635;-69
2021/07/17 12:43:49;;;;;;;8.60;3.20;;;;;;;;;;5094543;28;20111;-69
2021/07/17 12:46:22;;;;;;;6.28;2.90;;;;;;;;;;5093878;28;20388;-69
2021/07/17 12:48:53;;;;;;;4.25;2.50;;;;;;;;;;5094148;28;20145;-70
2021/07/17 12:51:21;;;;;;;5.30;2.90;;;;;;;;;;5094130;28;20503;-70
2021/07/17 12:53:49;;;;;;;4.10;2.45;;;;;;;;;;5092364;28;20067;-69
2021/07/17 12:56:16;;;;;;;5.63;2.75;;;;;;;;;;5094158;28;20020;-69
2021/07/17 12:58:42;;;;;;;4.15;2.75;;;;;;;;;;5094044;28;20098;-70
2021/07/17 13:01:11;;;;;;;6.57;2.92;;;;;;;;;;5093713;28;20496;-68
2021/07/17 13:03:38;;;;;;;5.03;2.63;;;;;;;;;;5094183;28;20421;-69
2021/07/17 13:06:04;;;;;;;5.78;3.08;;;;;;;;;;5093963;28;20040;-70
2021/07/17 13:08:34;;;;;;;6.13;2.78;;;;;;;;;;5092248;28;20020;-68
2021/07/17 13:11:01;;;;;;;7.10;4.03;;;;;;;;;;5093884;28;20028;-69
2021/07/17 13:13:28;;;;;;;5.47;3.22;;;;;;;;;;5092121;28;20257;-69
2021/07/17 13:15:58;;;;;;;4.10;2.50;;;;;;;;;;5093789;28;20028;-69
2021/07/17 13:18:27;;;;;;;4.93;2.95;;;;;;;;;;5093766;28;20051;-69
2021/07/17 13:21:10;;;;;;;7.80;2.80;;;;;;;;;;5093321;28;20085;-69
2021/07/17 13:23:53;;;;;;;7.72;2.90;;;;;;;;;;5093717;28;20545;-69
2021/07/17 13:26:25;;;;;;;7.47;3.03;;;;;;;;;;5093385;28;20131;-68
2021/07/17 13:28:52;;;;;;;5.18;2.90;;;;;;;;;;5093040;28;20024;-69
2021/07/17 13:31:35;;;;;;;5.10;2.53;;;;;;;;;;5093401;28;20020;-69
2021/07/17 13:34:11;;;;;;;4.80;2.88;;;;;;;;;;5093305;28;20499;-69
2021/07/17 13:36:49;;;;;;;4.38;2.70;;;;;;;;;;5092781;28;20020;-68
2021/07/17 13:39:15;;;;;;;4.72;2.17;;;;;;;;;;5093323;28;20051;-69
2021/07/17 13:41:41;;;;;;;5.70;3.00;;;;;;;;;;5092944;28;20434;-69
2021/07/17 13:44:11;;;;;;;5.28;2.63;;;;;;;;;;5093346;28;20400;-69
2021/07/17 13:46:38;;;;;;;4.38;2.42;;;;;;;;;;5093134;28;20028;-69
2021/07/17 13:49:18;;;;;;;7.15;3.38;;;;;;;;;;5092781;28;20016;-69
2021/07/17 13:51:45;;;;;;;4.97;2.63;;;;;;;;;;5093214;28;20035;-70
2021/07/17 13:54:11;;;;;;;10.90;3.30;;;;;;;;;;5093369;28;20020;-70
2021/07/17 13:56:38;;;;;;;8.00;3.05;;;;;;;;;;5092642;28;20107;-67
2021/07/17 13:59:06;;;;;;;8.05;3.22;;;;;;;;;;5093316;28;20024;-69
2021/07/17 14:01:34;;;;;;;7.43;3.58;;;;;;;;;;5093029;28;20107;-69
2021/07/17 14:04:01;;;;;;;7.65;3.10;;;;;;;;;;5092990;28;20024;-68
2021/07/17 14:06:28;;;;;;;5.45;3.20;;;;;;;;;;5091822;28;20066;-69
2021/07/17 14:08:55;;;;;;;7.03;3.30;;;;;;;;;;5092915;28;20012;-70
2021/07/17 14:11:22;;;;;;;6.10;3.70;;;;;;;;;;5092557;28;20071;-69
2021/07/17 14:13:48;;;;;;;7.07;3.35;;;;;;;;;;5092861;28;20516;-70
2021/07/17 14:16:14;;;;;;;6.78;2.90;;;;;;;;;;5092812;28;20032;-69
2021/07/17 14:18:44;;;;;;;11.23;3.70;;;;;;;;;;5092366;28;20582;-68
2021/07/17 14:21:10;;;;;;;6.15;2.80;;;;;;;;;;5091393;28;20036;-69
2021/07/17 14:23:37;;;;;;;5.00;2.95;;;;;;;;;;5092415;28;20040;-69
2021/07/17 14:26:03;;;;;;;6.07;3.33;;;;;;;;;;5091245;28;20072;-69
2021/07/17 14:28:30;;;;;;;17.15;4.65;;;;;;;;;;5092662;28;20379;-70
2021/07/17 14:30:56;;;;;;;7.15;2.92;;;;;;;;;;5090867;28;20028;-69
2021/07/17 14:33:23;;;;;;;6.43;3.55;;;;;;;;;;5092553;28;20026;-70
2021/07/17 14:35:50;;;;;;;5.55;2.88;;;;;;;;;;5091262;28;20107;-70
2021/07/17 14:38:16;;;;;;;6.63;3.00;;;;;;;;;;5092120;28;20444;-72
2021/07/17 14:40:42;;;;;;;6.28;2.70;;;;;;;;;;5092466;28;20034;-70
2021/07/17 14:43:09;;;;;;;8.43;2.83;;;;;;;;;;5092490;28;20100;-69
2021/07/17 14:45:35;;;;;;;4.22;2.05;;;;;;;;;;5092128;28;20026;-70
2021/07/17 14:48:02;;;;;;;2.35;1.90;;;;;;;;;;5095192;28;20059;-69
2021/07/17 14:50:28;;;;;;;4.57;1.95;;;;;;;;;;5096483;28;20020;-69
2021/07/17 14:52:55;;;;;;;5.43;2.38;;;;;;;;;;5096507;28;20024;-69
2021/07/17 14:55:21;;;;;;;6.50;2.75;;;;;;;;;;5096422;28;20410;-69
2021/07/17 14:57:48;;;;;;;5.45;2.15;;;;;;;;;;5096346;28;20531;-68
2021/07/17 15:00:15;;;;;;;3.03;1.90;;;;;;;;;;5095936;28;20032;-68
2021/07/17 15:02:41;;;;;;;3.40;2.00;;;;;;;;;;5094962;28;20019;-71
2021/07/17 15:05:08;;;;;;;3.05;1.58;;;;;;;;;;5096348;28;20024;-69
2021/07/17 15:07:36;;;;;;;4.25;2.60;;;;;;;;;;5096021;28;20024;-69
2021/07/17 15:10:03;;;;;;;6.55;2.33;;;;;;;;;;5096214;28;20103;-70
2021/07/17 15:12:29;;;;;;;4.80;2.47;;;;;;;;;;5096092;28;20024;-70
2021/07/17 15:14:55;;;;;;;2.97;1.77;;;;;;;;;;5094441;28;20020;-70